This is the latest recevied weather packets stored in our database for station/object EA1EXV-11. If no packets are shown the sender has not sent any weather packets the latest 10 day(s).
| Time | Temp. | Humidity | Pressure | Rain* | Wind** | Luminosity | Snow |
|---|---|---|---|---|---|---|---|
| 1777737916 | 17.22° C | 68% | 1015.7 hPa | - | - | - | - |
| 1777737016 | 17.22° C | 67% | 1015.7 hPa | - | - | - | - |
| 1777736116 | 17.22° C | 67% | 1015.9 hPa | - | - | - | - |
| 1777735216 | 16.11° C | 67% | 1015.9 hPa | - | - | - | - |
| 1777734316 | 15.56° C | 66% | 1016.2 hPa | - | - | - | - |
| 1777733416 | 16.11° C | 65% | 1016.2 hPa | - | - | - | - |
| 1777732516 | 15.56° C | 63% | 1016.3 hPa | - | - | - | - |
| 1777731616 | 15° C | 61% | 1016.7 hPa | - | - | - | - |
| 1777730716 | 16.11° C | 57% | 1016.8 hPa | - | - | - | - |
| 1777729816 | 18.33° C | 53% | 1016.5 hPa | - | - | - | - |
| 1777728915 | 21.11° C | 51% | 1016.5 hPa | - | - | - | - |
| 1777728164 | 22.22° C | 51% | 1016.3 hPa | - | - | - | - |
| 1777728015 | 22.22° C | 51% | 1016.3 hPa | - | - | - | - |
| 1777727115 | 21.67° C | 52% | 1016.4 hPa | - | - | - | - |
| 1777726215 | 21.67° C | 52% | 1016.4 hPa | - | - | - | - |
| 1777725315 | 21.67° C | 53% | 1016.4 hPa | - | - | - | - |
| 1777724415 | 21.11° C | 54% | 1016.6 hPa | - | - | - | - |
| 1777723515 | 21.67° C | 55% | 1016.6 hPa | - | - | - | - |
| 1777722615 | 20.56° C | 57% | 1016.7 hPa | - | - | - | - |
| 1777721715 | 21.67° C | 58% | 1016.8 hPa | - | - | - | - |
| 1777720815 | 23.33° C | 60% | 1016.8 hPa | - | - | - | - |
| 1777719914 | 21.11° C | 64% | 1016.9 hPa | - | - | - | - |
| 1777719014 | 21.11° C | 66% | 1017 hPa | - | - | - | - |
| 1777718114 | 21.11° C | 69% | 1017.1 hPa | - | - | - | - |
| 1777717214 | 18.33° C | 73% | 1017.4 hPa | - | - | - | - |
* Rain since midnight (hover to see other rain measurements)
** Current wind speed in m/s (hover to see current wind gust speed)